createdAt,value
2022-11-01T00:01:57.435Z,101389.22
2022-11-01T00:04:25.394Z,101391.69
2022-11-01T00:06:54.681Z,101385.47
2022-11-01T00:09:22.634Z,101369.78
2022-11-01T00:11:50.798Z,101365.41
2022-11-01T00:14:19.946Z,101351.69
2022-11-01T00:16:48.299Z,101345.25
2022-11-01T00:19:16.547Z,101327.41
2022-11-01T00:21:44.481Z,101320.72
2022-11-01T00:24:13.687Z,101324.50
2022-11-01T00:26:41.874Z,101327.09
2022-11-01T00:29:09.806Z,101338.34
2022-11-01T00:31:37.804Z,101339.53
2022-11-01T00:34:05.729Z,101332.22
2022-11-01T00:36:33.818Z,101334.19
2022-11-01T00:39:01.866Z,101324.53
2022-11-01T00:41:31.127Z,101334.19
2022-11-01T00:43:59.117Z,101355.06
2022-11-01T00:46:27.081Z,101345.72
2022-11-01T00:48:54.916Z,101341.53
2022-11-01T00:51:22.778Z,101352.63
2022-11-01T00:53:50.659Z,101348.88
2022-11-01T00:56:18.711Z,101325.38
2022-11-01T00:58:47.946Z,101333.16
2022-11-01T01:01:15.918Z,101325.91
2022-11-01T01:03:43.868Z,101327.22
2022-11-01T01:06:11.733Z,101317.28
2022-11-01T01:08:39.576Z,101309.81
2022-11-01T01:11:07.390Z,101303.94
2022-11-01T01:13:35.262Z,101296.03
2022-11-01T01:16:08.923Z,101278.53
2022-11-01T01:18:36.833Z,101272.56
2022-11-01T01:21:05.930Z,101284.66
2022-11-01T01:23:33.834Z,101268.22
2022-11-01T01:26:05.847Z,101256.84
2022-11-01T01:28:33.740Z,101249.13
2022-11-01T01:31:01.636Z,101245.53
2022-11-01T01:33:30.856Z,101270.25
2022-11-01T01:36:01.175Z,101283.19
2022-11-01T01:38:29.019Z,101273.25
2022-11-01T01:41:16.989Z,101310.91
2022-11-01T01:43:45.530Z,101306.94
2022-11-01T01:46:13.624Z,101321.69
2022-11-01T01:48:45.574Z,101313.72
2022-11-01T01:51:17.165Z,101306.63
2022-11-01T01:53:48.530Z,101303.25
2022-11-01T01:56:20.966Z,101289.91
2022-11-01T01:58:55.507Z,101294.56
2022-11-01T02:01:23.837Z,101282.78
2022-11-01T02:03:53.161Z,101277.91
2022-11-01T02:08:59.511Z,101252.72
2022-11-01T02:11:27.535Z,101248.13
2022-11-01T02:13:55.971Z,101249.00
2022-11-01T02:16:48.051Z,101248.13
2022-11-01T02:19:34.981Z,101232.22
2022-11-01T02:22:08.599Z,101236.78
2022-11-01T02:25:11.017Z,101234.22
2022-11-01T02:27:59.854Z,101233.47
2022-11-01T02:30:40.008Z,101218.00
2022-11-01T02:33:18.096Z,101213.16
2022-11-01T02:35:56.679Z,101218.97
2022-11-01T02:38:30.567Z,101217.06
2022-11-01T02:41:09.817Z,101208.19
2022-11-01T02:43:45.123Z,101207.16
2022-11-01T02:46:30.882Z,101206.28
2022-11-01T02:49:00.423Z,101203.06
2022-11-01T02:51:29.521Z,101189.19
2022-11-01T02:53:57.302Z,101197.44
2022-11-01T02:56:25.146Z,101194.13
2022-11-01T02:58:53.806Z,101191.63
2022-11-01T03:01:25.581Z,101196.44
2022-11-01T03:03:57.707Z,101193.88
2022-11-01T03:06:34.210Z,101196.09
2022-11-01T03:09:05.548Z,101202.66
2022-11-01T03:11:39.940Z,101210.63
2022-11-01T03:14:18.916Z,101205.25
2022-11-01T03:16:56.103Z,101201.22
2022-11-01T03:19:38.231Z,101196.44
2022-11-01T03:22:12.140Z,101195.03
2022-11-01T03:24:46.819Z,101204.25
2022-11-01T03:27:19.119Z,101201.94
2022-11-01T03:29:56.348Z,101209.91
2022-11-01T03:32:27.845Z,101218.25
2022-11-01T03:34:57.073Z,101216.56
2022-11-01T03:37:27.401Z,101213.59
2022-11-01T03:39:56.718Z,101205.19
2022-11-01T03:42:25.617Z,101200.59
2022-11-01T03:44:59.216Z,101202.91
2022-11-01T03:47:27.211Z,101212.28
2022-11-01T03:50:14.023Z,101215.25
2022-11-01T03:52:43.858Z,101200.94
2022-11-01T03:55:19.055Z,101196.38
2022-11-01T03:57:47.883Z,101190.56
2022-11-01T04:00:17.462Z,101190.69
2022-11-01T04:02:45.292Z,101200.09
2022-11-01T04:05:13.215Z,101201.78
2022-11-01T04:07:41.352Z,101185.81
2022-11-01T04:10:11.198Z,101187.53
2022-11-01T04:12:39.204Z,101183.34
2022-11-01T04:15:24.760Z,101182.16
2022-11-01T04:18:21.992Z,101183.03
2022-11-01T04:20:50.319Z,101184.31
2022-11-01T04:23:18.717Z,101186.94
2022-11-01T04:25:48.305Z,101194.47
2022-11-01T04:28:16.350Z,101204.44
2022-11-01T04:30:44.846Z,101214.94
2022-11-01T04:33:12.816Z,101207.41
2022-11-01T04:35:40.841Z,101203.72
2022-11-01T04:38:10.232Z,101199.78
2022-11-01T04:40:38.271Z,101191.19
2022-11-01T04:43:07.512Z,101183.13
2022-11-01T04:45:35.358Z,101186.09
2022-11-01T04:48:04.854Z,101199.16
2022-11-01T04:50:33.010Z,101192.34
2022-11-01T04:53:01.660Z,101184.44
2022-11-01T04:55:29.942Z,101189.50
2022-11-01T04:57:58.435Z,101188.31
2022-11-01T05:00:27.798Z,101177.88
2022-11-01T05:03:02.605Z,101181.88
2022-11-01T05:05:31.455Z,101171.09
2022-11-01T05:08:03.852Z,101171.69
2022-11-01T05:10:32.026Z,101173.53
2022-11-01T05:13:00.341Z,101173.66
2022-11-01T05:15:29.967Z,101173.94
2022-11-01T05:17:57.878Z,101154.66
2022-11-01T05:20:26.282Z,101166.31
2022-11-01T05:22:54.115Z,101173.47
2022-11-01T05:25:21.973Z,101162.28
2022-11-01T05:27:49.810Z,101140.44
2022-11-01T05:30:17.862Z,101140.13
2022-11-01T05:32:47.088Z,101153.72
2022-11-01T05:35:14.938Z,101150.91
2022-11-01T05:37:42.751Z,101142.69
2022-11-01T05:40:11.925Z,101145.28
2022-11-01T05:42:40.410Z,101159.84
2022-11-01T05:45:10.028Z,101152.66
2022-11-01T05:47:40.291Z,101169.91
2022-11-01T05:50:11.324Z,101155.19
2022-11-01T05:52:39.640Z,101159.59
2022-11-01T05:55:09.560Z,101151.31
2022-11-01T05:57:37.555Z,101152.91
2022-11-01T06:00:07.208Z,101160.84
2022-11-01T06:02:41.736Z,101159.28
2022-11-01T06:05:11.243Z,101175.59
2022-11-01T06:07:39.080Z,101159.63
2022-11-01T06:10:07.798Z,101182.59
2022-11-01T06:12:35.685Z,101174.38
2022-11-01T06:15:03.610Z,101173.16
2022-11-01T06:17:31.432Z,101163.53
2022-11-01T06:19:59.683Z,101152.28
2022-11-01T06:22:29.045Z,101154.22
2022-11-01T06:24:56.929Z,101159.69
2022-11-01T06:27:24.760Z,101162.25
2022-11-01T06:29:52.618Z,101150.22
2022-11-01T06:32:20.599Z,101142.97
2022-11-01T06:34:48.457Z,101154.00
2022-11-01T06:37:16.318Z,101147.50
2022-11-01T06:39:45.565Z,101163.88
2022-11-01T06:42:13.371Z,101180.94
2022-11-01T06:44:41.242Z,101173.16
2022-11-01T06:47:09.076Z,101171.44
2022-11-01T06:49:36.962Z,101170.78
2022-11-01T06:52:05.223Z,101180.81
2022-11-01T06:54:33.667Z,101170.03
2022-11-01T06:57:02.904Z,101176.69
2022-11-01T06:59:30.752Z,101174.88
2022-11-01T07:01:59.130Z,101168.03
2022-11-01T07:04:29.131Z,101167.69
2022-11-01T07:06:56.963Z,101175.31
2022-11-01T07:09:24.979Z,101178.34
2022-11-01T07:11:52.840Z,101180.22
2022-11-01T07:14:22.197Z,101187.28
2022-11-01T07:16:50.356Z,101186.88
2022-11-01T07:19:18.259Z,101189.69
2022-11-01T07:21:46.131Z,101185.16
2022-11-01T07:24:14.241Z,101200.47
2022-11-01T07:26:42.052Z,101185.72
2022-11-01T07:29:10.042Z,101189.81
2022-11-01T07:31:40.082Z,101197.47
2022-11-01T07:34:07.967Z,101221.09
2022-11-01T07:36:35.914Z,101209.28
2022-11-01T07:39:03.968Z,101223.38
2022-11-01T07:41:31.828Z,101228.06
2022-11-01T07:43:59.676Z,101227.25
2022-11-01T07:46:27.533Z,101221.94
2022-11-01T07:48:56.706Z,101225.94
2022-11-01T07:51:24.539Z,101233.81
2022-11-01T07:53:52.418Z,101236.44
2022-11-01T07:56:21.717Z,101249.97
2022-11-01T07:58:49.673Z,101238.84
2022-11-01T08:01:17.655Z,101243.69
2022-11-01T08:03:45.544Z,101260.31
2022-11-01T08:06:14.749Z,101268.41
2022-11-01T08:08:42.552Z,101255.50
2022-11-01T08:11:10.358Z,101262.75
2022-11-01T08:13:38.198Z,101264.59
2022-11-01T08:16:06.891Z,101250.25
2022-11-01T08:18:34.774Z,101244.16
2022-11-01T08:21:02.610Z,101242.84
2022-11-01T08:23:31.791Z,101247.84
2022-11-01T08:25:59.696Z,101257.50
2022-11-01T08:28:29.713Z,101246.00
2022-11-01T08:30:57.564Z,101236.16
2022-11-01T08:33:25.646Z,101242.72
2022-11-01T08:35:53.495Z,101241.00
2022-11-01T08:38:21.387Z,101255.47
2022-11-01T08:40:50.581Z,101252.06
2022-11-01T08:43:18.654Z,101241.41
2022-11-01T08:45:46.574Z,101238.13
2022-11-01T08:48:14.785Z,101234.97
2022-11-01T08:50:42.907Z,101230.25
2022-11-01T08:53:12.372Z,101231.28
2022-11-01T08:55:41.764Z,101230.13
2022-11-01T08:58:11.086Z,101228.16
2022-11-01T09:00:38.937Z,101231.78
2022-11-01T09:03:07.087Z,101239.97
2022-11-01T09:05:34.935Z,101247.41
2022-11-01T09:08:03.336Z,101249.34
2022-11-01T09:10:32.209Z,101242.63
2022-11-01T09:13:00.738Z,101244.75
2022-11-01T09:15:30.575Z,101226.84
2022-11-01T09:17:58.675Z,101230.06
2022-11-01T09:20:28.144Z,101222.13
2022-11-01T09:22:55.997Z,101234.81
2022-11-01T09:25:23.994Z,101223.91
2022-11-01T09:27:51.850Z,101226.56
2022-11-01T09:30:20.039Z,101213.66
2022-11-01T09:32:49.224Z,101216.59
2022-11-01T09:35:18.054Z,101230.28
2022-11-01T09:37:45.979Z,101235.22
2022-11-01T09:40:15.997Z,101235.31
2022-11-01T09:42:45.937Z,101276.22
2022-11-01T09:45:18.850Z,101272.31
2022-11-01T09:47:51.562Z,101262.81
2022-11-01T09:50:23.533Z,101258.63
2022-11-01T09:52:52.630Z,101271.56
2022-11-01T09:55:42.354Z,101269.50
2022-11-01T09:58:21.617Z,101273.50
2022-11-01T10:00:59.520Z,101274.13
2022-11-01T10:03:44.415Z,101259.78
2022-11-01T10:06:17.723Z,101265.81
2022-11-01T10:08:51.841Z,101264.94
2022-11-01T10:11:44.738Z,101262.78
2022-11-01T10:14:24.657Z,101275.78
2022-11-01T10:17:04.741Z,101271.00
2022-11-01T10:19:35.393Z,101259.44
2022-11-01T10:22:08.501Z,101260.72
2022-11-01T10:24:40.775Z,101266.09
2022-11-01T10:27:15.189Z,101268.25
2022-11-01T10:29:48.709Z,101268.09
2022-11-01T10:32:25.536Z,101274.91
2022-11-01T10:34:56.306Z,101277.06
2022-11-01T10:37:29.854Z,101273.16
2022-11-01T10:40:06.332Z,101288.97
2022-11-01T10:42:37.928Z,101298.09
2022-11-01T10:45:08.865Z,101296.13
2022-11-01T10:47:36.861Z,101292.59
2022-11-01T10:50:15.685Z,101298.53
2022-11-01T10:52:50.848Z,101312.78
2022-11-01T10:55:23.346Z,101299.28
2022-11-01T10:57:57.363Z,101300.16
2022-11-01T11:00:25.281Z,101287.91
2022-11-01T11:02:57.408Z,101281.72
2022-11-01T11:05:31.312Z,101282.34
2022-11-01T11:08:01.779Z,101280.09
2022-11-01T11:10:30.697Z,101276.94
2022-11-01T11:13:02.513Z,101266.75
2022-11-01T11:15:39.385Z,101269.50
2022-11-01T11:18:16.962Z,101271.22
2022-11-01T11:20:51.816Z,101284.41
2022-11-01T11:23:21.039Z,101288.50
2022-11-01T11:25:50.469Z,101293.94
2022-11-01T11:28:30.538Z,101287.81
2022-11-01T11:31:11.382Z,101302.19
2022-11-01T11:33:39.320Z,101304.13
2022-11-01T11:36:09.359Z,101301.66
2022-11-01T11:38:48.268Z,101303.50
2022-11-01T11:41:29.118Z,101301.66
2022-11-01T11:43:57.068Z,101301.47
2022-11-01T11:46:25.182Z,101300.63
2022-11-01T11:48:56.759Z,101305.34
2022-11-01T11:51:29.694Z,101305.69
2022-11-01T11:54:16.463Z,101303.78
2022-11-01T11:56:45.026Z,101303.50
2022-11-01T11:59:22.485Z,101293.22
2022-11-01T12:01:50.621Z,101299.13
2022-11-01T12:04:20.947Z,101305.47
2022-11-01T12:06:50.677Z,101314.75
2022-11-01T12:09:43.037Z,101320.03
2022-11-01T12:12:18.283Z,101323.81
2022-11-01T12:14:46.352Z,101320.97
2022-11-01T12:17:33.094Z,101327.94
2022-11-01T12:20:13.751Z,101327.66
2022-11-01T12:22:47.965Z,101329.31
2022-11-01T12:25:19.104Z,101323.53
2022-11-01T12:27:56.311Z,101329.06
2022-11-01T12:30:25.909Z,101321.50
2022-11-01T12:32:55.782Z,101326.25
2022-11-01T12:35:30.635Z,101323.41
2022-11-01T12:38:33.125Z,101311.03
2022-11-01T12:41:13.431Z,101318.66
2022-11-01T12:44:04.846Z,101312.53
2022-11-01T12:46:39.373Z,101324.25
2022-11-01T12:49:15.801Z,101340.50
2022-11-01T12:51:50.227Z,101338.16
2022-11-01T12:54:26.934Z,101339.31
2022-11-01T12:56:55.867Z,101348.56
2022-11-01T12:59:28.203Z,101353.03
2022-11-01T13:02:03.532Z,101346.59
2022-11-01T13:04:35.826Z,101337.16
2022-11-01T13:07:24.014Z,101333.88
2022-11-01T13:10:03.081Z,101334.38
2022-11-01T13:12:42.779Z,101326.22
2022-11-01T13:15:18.141Z,101337.59
2022-11-01T13:17:54.354Z,101341.47
2022-11-01T13:20:35.209Z,101329.16
2022-11-01T13:23:16.513Z,101331.53
2022-11-01T13:25:52.051Z,101334.22
2022-11-01T13:28:31.645Z,101336.69
2022-11-01T13:31:04.539Z,101323.13
2022-11-01T13:33:43.988Z,101321.88
2022-11-01T13:36:19.288Z,101331.72
2022-11-01T13:38:54.441Z,101338.34
2022-11-01T13:41:29.742Z,101336.25
2022-11-01T13:44:01.269Z,101344.28
2022-11-01T13:46:53.817Z,101351.16
2022-11-01T13:49:45.743Z,101346.78
2022-11-01T13:52:19.314Z,101342.66
2022-11-01T13:54:54.684Z,101339.53
2022-11-01T13:57:26.768Z,101336.56
2022-11-01T13:59:57.346Z,101344.78
2022-11-01T14:02:58.030Z,101341.19
2022-11-01T14:05:38.587Z,101346.38
2022-11-01T14:08:37.205Z,101340.34
2022-11-01T14:11:05.279Z,101339.69
2022-11-01T14:13:38.014Z,101344.75
2022-11-01T14:16:28.072Z,101344.59
2022-11-01T14:19:21.094Z,101354.34
2022-11-01T14:21:54.039Z,101362.00
2022-11-01T14:24:35.199Z,101361.91
2022-11-01T14:27:20.899Z,101366.22
2022-11-01T14:29:54.559Z,101370.16
2022-11-01T14:32:24.985Z,101359.22
2022-11-01T14:35:01.337Z,101363.88
2022-11-01T14:37:35.830Z,101362.50
2022-11-01T14:40:21.715Z,101372.06
2022-11-01T14:42:51.821Z,101370.47
2022-11-01T14:45:37.315Z,101374.47
2022-11-01T14:48:13.367Z,101373.38
2022-11-01T14:50:48.599Z,101379.19
2022-11-01T14:53:24.755Z,101381.50
2022-11-01T14:56:05.076Z,101386.31
2022-11-01T14:58:33.111Z,101384.28
2022-11-01T15:01:08.197Z,101382.91
2022-11-01T15:03:36.225Z,101385.56
2022-11-01T15:06:04.750Z,101389.44
2022-11-01T15:08:38.175Z,101388.75
2022-11-01T15:11:07.476Z,101394.72
2022-11-01T15:13:39.268Z,101398.88
2022-11-01T15:16:16.308Z,101391.63
2022-11-01T15:18:49.391Z,101395.88
2022-11-01T15:21:23.120Z,101395.66
2022-11-01T15:23:55.998Z,101392.97
2022-11-01T15:26:27.845Z,101399.75
2022-11-01T15:28:59.013Z,101399.78
2022-11-01T15:31:29.219Z,101401.78
2022-11-01T15:33:59.318Z,101402.59
2022-11-01T15:36:33.547Z,101405.06
2022-11-01T15:39:03.408Z,101410.53
2022-11-01T15:41:32.845Z,101419.75
2022-11-01T15:44:02.469Z,101412.69
2022-11-01T15:46:37.623Z,101411.56
2022-11-01T15:49:09.927Z,101415.09
2022-11-01T15:51:42.416Z,101420.75
2022-11-01T15:54:20.142Z,101427.44
2022-11-01T15:56:51.753Z,101428.25
2022-11-01T15:59:27.675Z,101419.72
2022-11-01T16:02:00.900Z,101423.94
2022-11-01T16:04:37.025Z,101418.81
2022-11-01T16:07:08.083Z,101421.03
2022-11-01T16:09:40.259Z,101434.13
2022-11-01T16:12:18.483Z,101422.59
2022-11-01T16:14:53.331Z,101423.72
2022-11-01T16:17:32.526Z,101427.31
2022-11-01T16:20:04.688Z,101432.72
2022-11-01T16:22:38.163Z,101432.56
2022-11-01T16:25:16.425Z,101438.91
2022-11-01T16:27:57.222Z,101439.97
2022-11-01T16:30:45.324Z,101434.72
2022-11-01T16:33:24.032Z,101439.56
2022-11-01T16:35:54.662Z,101444.47
2022-11-01T16:38:29.208Z,101443.50
2022-11-01T16:40:59.285Z,101451.75
2022-11-01T16:43:29.623Z,101446.75
2022-11-01T16:45:58.071Z,101455.28
2022-11-01T16:48:29.353Z,101465.00
2022-11-01T16:50:58.964Z,101461.19
2022-11-01T16:53:29.274Z,101460.50
2022-11-01T16:56:16.822Z,101470.59
2022-11-01T16:58:52.038Z,101478.16
2022-11-01T17:01:22.754Z,101477.88
2022-11-01T17:03:53.689Z,101487.47
2022-11-01T17:06:22.183Z,101480.78
2022-11-01T17:08:50.050Z,101485.94
2022-11-01T17:11:19.718Z,101483.19
2022-11-01T17:13:47.630Z,101483.78
2022-11-01T17:16:23.405Z,101487.63
2022-11-01T17:18:59.353Z,101491.34
2022-11-01T17:21:31.050Z,101485.22
2022-11-01T17:23:59.427Z,101498.16
2022-11-01T17:26:27.892Z,101505.59
2022-11-01T17:28:55.852Z,101503.31
2022-11-01T17:31:26.886Z,101509.25
2022-11-01T17:33:59.144Z,101515.13
2022-11-01T17:36:28.666Z,101516.84
2022-11-01T17:38:56.734Z,101517.13
2022-11-01T17:41:27.464Z,101524.97
2022-11-01T17:43:55.512Z,101537.50
2022-11-01T17:46:26.870Z,101537.22
2022-11-01T17:48:56.262Z,101530.41
2022-11-01T17:51:24.136Z,101533.94
2022-11-01T17:53:55.742Z,101537.66
2022-11-01T17:56:24.016Z,101535.63
2022-11-01T17:58:53.678Z,101543.50
2022-11-01T18:01:22.260Z,101544.78
2022-11-01T18:03:50.598Z,101544.81
2022-11-01T18:06:20.048Z,101546.63
2022-11-01T18:08:50.838Z,101540.53
2022-11-01T18:11:34.289Z,101540.78
2022-11-01T18:14:06.995Z,101540.38
2022-11-01T18:16:42.151Z,101543.22
2022-11-01T18:19:28.323Z,101553.47
2022-11-01T18:22:09.526Z,101551.75
2022-11-01T18:24:44.026Z,101554.31
2022-11-01T18:27:13.277Z,101559.84
2022-11-01T18:29:43.238Z,101555.44
2022-11-01T18:32:19.270Z,101553.47
2022-11-01T18:34:51.867Z,101556.88
2022-11-01T18:37:27.710Z,101556.28
2022-11-01T18:40:03.815Z,101569.31
2022-11-01T18:42:32.079Z,101565.63
2022-11-01T18:45:15.931Z,101561.69
2022-11-01T18:47:48.968Z,101561.66
2022-11-01T18:50:23.542Z,101567.59
2022-11-01T18:53:02.355Z,101564.34
2022-11-01T18:55:33.550Z,101562.19
2022-11-01T18:58:14.002Z,101570.47
2022-11-01T19:00:42.820Z,101577.28
2022-11-01T19:03:21.798Z,101570.00
2022-11-01T19:05:52.166Z,101577.50
2022-11-01T19:08:25.701Z,101583.19
2022-11-01T19:10:54.860Z,101583.75
2022-11-01T19:13:28.706Z,101578.88
2022-11-01T19:15:58.045Z,101578.31
2022-11-01T19:18:26.532Z,101586.69
2022-11-01T19:20:55.986Z,101581.81
2022-11-01T19:23:37.281Z,101587.63
2022-11-01T19:26:05.360Z,101584.50
2022-11-01T19:28:36.994Z,101580.25
2022-11-01T19:31:08.495Z,101588.03
2022-11-01T19:33:40.059Z,101588.03
2022-11-01T19:36:15.446Z,101591.44
2022-11-01T19:38:45.246Z,101591.00
2022-11-01T19:41:15.507Z,101599.25
2022-11-01T19:43:43.414Z,101606.88
2022-11-01T19:46:13.840Z,101606.09
2022-11-01T19:48:41.696Z,101599.72
2022-11-01T19:51:15.997Z,101603.94
2022-11-01T19:53:45.428Z,101601.44
2022-11-01T19:56:14.961Z,101604.22
2022-11-01T19:58:45.387Z,101605.78
2022-11-01T20:01:34.720Z,101603.66
2022-11-01T20:04:04.474Z,101617.28
2022-11-01T20:06:37.352Z,101611.63
2022-11-01T20:09:12.444Z,101618.69
2022-11-01T20:11:40.344Z,101615.28
2022-11-01T20:14:08.202Z,101616.00
2022-11-01T20:16:36.050Z,101620.63
2022-11-01T20:19:03.886Z,101619.94
2022-11-01T20:21:31.858Z,101625.34
2022-11-01T20:23:59.969Z,101624.28
2022-11-01T20:26:29.150Z,101623.63
2022-11-01T20:28:57.137Z,101628.16
2022-11-01T20:31:25.792Z,101631.59
2022-11-01T20:33:54.035Z,101630.84
2022-11-01T20:36:22.574Z,101629.38
2022-11-01T20:38:50.682Z,101627.94
2022-11-01T20:41:19.154Z,101626.56
2022-11-01T20:43:48.338Z,101632.50
2022-11-01T20:46:16.391Z,101628.44
2022-11-01T20:48:45.143Z,101629.31
2022-11-01T20:51:13.212Z,101626.25
2022-11-01T20:53:41.514Z,101628.72
2022-11-01T20:56:09.968Z,101632.63
2022-11-01T20:58:40.575Z,101639.97
2022-11-01T21:01:16.361Z,101633.06
2022-11-01T21:03:44.461Z,101626.97
2022-11-01T21:06:14.534Z,101637.53
2022-11-01T21:08:44.970Z,101630.09
2022-11-01T21:11:20.903Z,101633.28
2022-11-01T21:13:50.895Z,101630.16
2022-11-01T21:16:24.446Z,101629.47
2022-11-01T21:18:54.798Z,101625.47
2022-11-01T21:21:33.291Z,101625.06
2022-11-01T21:24:15.971Z,101625.06
2022-11-01T21:26:44.025Z,101631.06
2022-11-01T21:29:20.721Z,101631.19
2022-11-01T21:31:49.911Z,101635.88
2022-11-01T21:34:25.499Z,101631.63
2022-11-01T21:36:53.583Z,101628.78
2022-11-01T21:39:23.488Z,101624.13
2022-11-01T21:41:52.728Z,101623.75
2022-11-01T21:44:26.179Z,101615.59
2022-11-01T21:46:56.076Z,101607.22
2022-11-01T21:49:26.879Z,101617.69
2022-11-01T21:51:56.380Z,101611.78
2022-11-01T21:54:24.249Z,101621.72
2022-11-01T21:56:52.076Z,101614.16
2022-11-01T21:59:20.209Z,101624.44
2022-11-01T22:01:49.145Z,101621.63
2022-11-01T22:04:18.923Z,101626.16
2022-11-01T22:06:48.887Z,101627.13
2022-11-01T22:09:18.399Z,101628.59
2022-11-01T22:11:46.285Z,101631.09
2022-11-01T22:14:14.251Z,101629.13
2022-11-01T22:16:42.167Z,101626.44
2022-11-01T22:19:09.982Z,101623.22
2022-11-01T22:21:39.359Z,101619.34
2022-11-01T22:24:07.884Z,101620.13
2022-11-01T22:26:35.741Z,101619.53
2022-11-01T22:29:03.552Z,101625.91
2022-11-01T22:31:31.551Z,101626.88
2022-11-01T22:33:59.341Z,101628.97
2022-11-01T22:36:29.015Z,101623.00
2022-11-01T22:39:00.121Z,101621.28
2022-11-01T22:41:33.066Z,101628.63
2022-11-01T22:44:05.560Z,101634.00
2022-11-01T22:46:43.155Z,101633.75
2022-11-01T22:49:16.291Z,101629.72
2022-11-01T22:51:46.186Z,101632.03
2022-11-01T22:54:28.949Z,101631.31
2022-11-01T22:57:01.884Z,101631.31
2022-11-01T22:59:33.348Z,101628.63
2022-11-01T23:02:22.636Z,101617.34
2022-11-01T23:04:50.777Z,101621.00
2022-11-01T23:07:29.455Z,101631.66
2022-11-01T23:10:05.178Z,101629.09
2022-11-01T23:12:51.949Z,101625.94
2022-11-01T23:15:26.949Z,101624.34
2022-11-01T23:17:54.993Z,101623.47
2022-11-01T23:20:22.815Z,101620.78
2022-11-01T23:22:50.785Z,101633.03
2022-11-01T23:25:19.992Z,101634.22
2022-11-01T23:27:47.856Z,101629.69
2022-11-01T23:30:15.822Z,101635.44
2022-11-01T23:32:44.768Z,101625.91
2022-11-01T23:35:15.909Z,101626.38
2022-11-01T23:37:44.793Z,101626.38
2022-11-01T23:40:16.179Z,101610.88
2022-11-01T23:42:46.061Z,101616.88
2022-11-01T23:45:29.308Z,101618.81
2022-11-01T23:47:57.388Z,101621.28
2022-11-01T23:50:30.279Z,101622.97
2022-11-01T23:53:00.288Z,101627.63
2022-11-01T23:55:30.767Z,101631.53
2022-11-01T23:58:02.649Z,101627.72
